Data for 03/27/2017

Time Sea-Level Adjusted Pressure Absolute Pressure Temperature Relative Humidity Dew Point   
(mb) (inHg) (mb) (inHg) (C) (F) (%) (C) (F)
00:05 1013 29.91 842 24.86 5.4 41.8 52 -3.7 25.4
00:10 1013 29.91 842 24.86 5.5 41.8 51 -3.8 25.1
00:15 1012 29.88 842 24.86 5.5 41.9 53 -3.3 26
00:20 1013 29.91 842 24.86 5.3 41.6 55 -2.9 26.8
00:25 1013 29.91 842 24.86 5 41.1 58 -2.4 27.7
00:30 1013 29.91 842 24.86 4.7 40.5 60 -2.3 27.9
00:35 1013 29.91 842 24.86 4.6 40.3 62 -2.1 28.1
00:40 1013 29.91 842 24.86 4.5 40.1 63 -1.9 28.5
00:45 1012 29.88 842 24.86 4.3 39.8 65 -1.7 28.9
00:50 1012 29.88 842 24.86 4.1 39.4 67 -1.5 29.3
00:55 1012 29.88 842 24.86 3.9 39 69 -1.3 29.6
01:00 1012 29.88 842 24.86 3.7 38.6 70 -1.2 29.8
01:05 1012 29.88 842 24.86 3.5 38.2 72 -1.1 30
01:10 1012 29.88 842 24.86 3.3 38 72 -1.2 29.9
01:15 1012 29.88 841 24.83 3.3 38 72 -1.2 29.9
01:20 1012 29.88 841 24.83 3.3 38 73 -1.1 30.1
01:25 1012 29.88 841 24.83 3.2 37.8 73 -1.1 30
01:30 1012 29.88 841 24.83 3.2 37.8 73 -1.2 29.9
01:35 1012 29.88 841 24.83 3.3 37.9 72 -1.2 29.8
01:40 1012 29.88 841 24.83 3.3 37.9 72 -1.3 29.7
01:45 1012 29.88 841 24.83 3.3 38 72 -1.2 29.8
01:50 1012 29.88 841 24.83 3.3 37.9 72 -1.3 29.6
01:55 1012 29.88 841 24.83 3.3 37.9 72 -1.3 29.6
02:00 1012 29.88 841 24.83 3.3 37.9 72 -1.3 29.6
02:05 1012 29.88 841 24.83 3.3 38 71 -1.4 29.5
02:10 1012 29.88 841 24.83 3.3 38 70 -1.5 29.2
02:15 1012 29.88 841 24.83 3.4 38.1 70 -1.5 29.3
02:20 1012 29.88 841 24.83 3.3 38 71 -1.5 29.3
02:25 1012 29.88 841 24.83 3.3 37.9 71 -1.5 29.3
02:30 1012 29.88 841 24.83 3.2 37.8 71 -1.6 29.2
02:35 1012 29.88 841 24.83 3.2 37.8 71 -1.5 29.4
02:40 1012 29.88 841 24.83 3.2 37.8 70 -1.6 29.1
02:45 1012 29.88 841 24.83 3.3 38 70 -1.7 28.9
02:50 1012 29.88 841 24.83 3.4 38.2 69 -1.7 29
02:55 1012 29.88 842 24.86 3.4 38.1 70 -1.6 29.1
03:00 1012 29.88 842 24.86 3.3 38 71 -1.5 29.4
03:05 1012 29.88 842 24.86 3.2 37.8 71 -1.5 29.3
03:10 1012 29.88 842 24.86 3.2 37.8 72 -1.5 29.4
03:15 1012 29.88 842 24.86 3.1 37.7 71 -1.6 29.2
03:20 1012 29.88 842 24.86 3.2 37.8 71 -1.5 29.3
03:25 1012 29.88 842 24.86 3.2 37.8 71 -1.6 29.1
03:30 1012 29.88 842 24.86 3.2 37.8 70 -1.7 29
03:35 1012 29.88 841 24.83 3.2 37.8 71 -1.5 29.3
03:40 1012 29.88 841 24.83 3.2 37.7 71 -1.5 29.3
03:45 1012 29.88 842 24.86 3 37.4 72 -1.6 29.2
03:50 1012 29.88 841 24.83 3 37.5 71 -1.7 29
03:55 1012 29.88 841 24.83 3 37.4 71 -1.7 29
04:00 1012 29.88 841 24.83 3.1 37.5 71 -1.7 28.9
04:05 1012 29.88 841 24.83 3.1 37.6 71 -1.7 28.9
04:10 1012 29.88 841 24.83 3.1 37.6 70 -1.8 28.8
04:15 1012 29.88 841 24.83 3.1 37.6 70 -1.9 28.7
04:20 1012 29.88 841 24.83 3.1 37.6 69 -2 28.5
04:25 1012 29.88 841 24.83 3.1 37.6 69 -2 28.4
04:30 1012 29.88 841 24.83 3.1 37.6 69 -2.1 28.3
04:35 1012 29.88 841 24.83 3.1 37.6 68 -2.2 28